Time,TemperatureF,DewpointF,PressureIn,WindDirection,WindDirectionDegrees,WindSpeedMPH,WindSpeedGustMPH,Humidity,HourlyPrecipIn,Conditions,Clouds,dailyrainin,SoftwareType,DateUTC
2013-02-10 00:00:00,38.0,31.8,30.09,ENE,67,0.0,0.0,78,0.00,,,0.00,WUHU21623XXSP,2013-02-10 08:00:00,
2013-02-10 00:05:00,37.8,31.6,30.09,ENE,67,0.0,0.0,78,0.00,,,0.00,WUHU21623XXSP,2013-02-10 08:05:00,
2013-02-10 00:10:00,38.0,31.8,30.09,East,90,0.0,5.0,78,0.00,,,0.00,WUHU21623XXSP,2013-02-10 08:10:00,
2013-02-10 00:15:00,38.0,32.1,30.09,East,90,0.0,5.0,79,0.00,,,0.00,WUHU21623XXSP,2013-02-10 08:15:00,
2013-02-10 00:20:00,38.0,31.8,30.10,East,90,0.0,0.0,78,0.00,,,0.00,WUHU21623XXSP,2013-02-10 08:20:00,
2013-02-10 00:25:00,38.0,31.8,30.09,East,90,2.8,5.5,78,0.00,,,0.00,WUHU21623XXSP,2013-02-10 08:25:00,
2013-02-10 00:30:00,38.0,32.1,30.09,East,90,0.0,5.5,79,0.00,,,0.00,WUHU21623XXSP,2013-02-10 08:30:00,
2013-02-10 00:35:00,38.0,32.1,30.09,East,90,0.0,4.0,79,0.00,,,0.00,WUHU21623XXSP,2013-02-10 08:35:00,
2013-02-10 00:40:00,38.0,32.1,30.09,East,90,0.0,0.0,79,0.00,,,0.00,WUHU21623XXSP,2013-02-10 08:40:00,
2013-02-10 00:45:00,38.0,32.1,30.09,East,90,0.0,0.0,79,0.00,,,0.00,WUHU21623XXSP,2013-02-10 08:45:00,
2013-02-10 00:50:00,38.0,32.1,30.08,East,90,0.0,0.0,79,0.00,,,0.00,WUHU21623XXSP,2013-02-10 08:50:00,
2013-02-10 00:55:00,38.0,32.1,30.08,East,90,0.0,0.0,79,0.00,,,0.00,WUHU21623XXSP,2013-02-10 08:55:00,
2013-02-10 01:00:00,38.0,32.1,30.08,East,90,0.0,0.0,79,0.00,,,0.00,WUHU21623XXSP,2013-02-10 09:00:00,
2013-02-10 01:05:00,38.0,32.1,30.08,ENE,67,0.0,0.0,79,0.00,,,0.00,WUHU21623XXSP,2013-02-10 09:05:00,
2013-02-10 01:10:00,38.0,32.1,30.08,ENE,67,0.0,0.0,79,0.00,,,0.00,WUHU21623XXSP,2013-02-10 09:10:00,
2013-02-10 01:15:00,37.8,31.9,30.08,ENE,67,0.0,0.0,79,0.00,,,0.00,WUHU21623XXSP,2013-02-10 09:15:00,
2013-02-10 01:20:00,37.8,31.9,30.09,East,90,2.8,2.8,79,0.00,,,0.00,WUHU21623XXSP,2013-02-10 09:20:00,
2013-02-10 01:25:00,37.7,31.8,30.09,East,90,0.0,2.8,79,0.00,,,0.00,WUHU21623XXSP,2013-02-10 09:25:00,
2013-02-10 01:30:00,37.5,31.6,30.09,East,90,0.0,0.0,79,0.00,,,0.00,WUHU21623XXSP,2013-02-10 09:30:00,
2013-02-10 01:35:00,37.5,31.6,30.09,East,90,0.0,0.0,79,0.00,,,0.00,WUHU21623XXSP,2013-02-10 09:35:00,
2013-02-10 01:40:00,37.5,31.6,30.09,East,90,0.0,0.0,79,0.00,,,0.00,WUHU21623XXSP,2013-02-10 09:40:00,
2013-02-10 01:45:00,37.5,31.6,30.08,East,90,0.0,0.0,79,0.00,,,0.00,WUHU21623XXSP,2013-02-10 09:45:00,
2013-02-10 01:50:00,37.5,31.6,30.08,East,90,0.0,0.0,79,0.00,,,0.00,WUHU21623XXSP,2013-02-10 09:50:00,
2013-02-10 01:55:00,37.3,31.4,30.08,East,90,0.0,0.0,79,0.00,,,0.00,WUHU21623XXSP,2013-02-10 09:55:00,
2013-02-10 02:00:00,37.1,31.2,30.08,East,90,0.0,0.0,79,0.00,,,0.00,WUHU21623XXSP,2013-02-10 10:00:00,
2013-02-10 02:05:00,37.1,31.2,30.08,East,90,0.0,0.0,79,0.00,,,0.00,WUHU21623XXSP,2013-02-10 10:05:00,
2013-02-10 02:10:00,37.1,31.5,30.08,East,90,0.0,0.0,80,0.00,,,0.00,WUHU21623XXSP,2013-02-10 10:10:00,
2013-02-10 02:15:00,37.1,31.5,30.08,East,90,0.0,0.0,80,0.00,,,0.00,WUHU21623XXSP,2013-02-10 10:15:00,
2013-02-10 02:20:00,36.9,31.3,30.08,East,90,0.0,0.0,80,0.00,,,0.00,WUHU21623XXSP,2013-02-10 10:20:00,
2013-02-10 02:25:00,36.9,31.3,30.08,East,90,0.0,0.0,80,0.00,,,0.00,WUHU21623XXSP,2013-02-10 10:25:00,
2013-02-10 02:30:00,36.9,31.6,30.08,East,90,0.0,0.0,81,0.00,,,0.00,WUHU21623XXSP,2013-02-10 10:30:00,
2013-02-10 02:35:00,36.9,31.6,30.08,East,90,0.0,0.0,81,0.00,,,0.00,WUHU21623XXSP,2013-02-10 10:35:00,
2013-02-10 02:40:00,36.9,31.6,30.08,East,90,0.0,0.0,81,0.00,,,0.00,WUHU21623XXSP,2013-02-10 10:40:00,
2013-02-10 02:45:00,36.8,31.5,30.09,East,90,0.0,0.0,81,0.00,,,0.00,WUHU21623XXSP,2013-02-10 10:45:00,
2013-02-10 02:50:00,36.8,31.5,30.09,East,90,0.0,0.0,81,0.00,,,0.00,WUHU21623XXSP,2013-02-10 10:50:00,
2013-02-10 02:55:00,36.6,31.0,30.09,East,90,0.0,0.0,80,0.00,,,0.00,WUHU21623XXSP,2013-02-10 10:55:00,
2013-02-10 03:00:00,36.4,31.1,30.08,East,90,0.0,0.0,81,0.00,,,0.00,WUHU21623XXSP,2013-02-10 11:00:00,
2013-02-10 03:05:00,36.4,31.1,30.08,East,90,0.0,0.0,81,0.00,,,0.00,WUHU21623XXSP,2013-02-10 11:05:00,
2013-02-10 03:10:00,36.6,31.0,30.08,East,90,0.0,0.0,80,0.00,,,0.00,WUHU21623XXSP,2013-02-10 11:10:00,
2013-02-10 03:15:00,36.6,31.0,30.08,East,90,0.0,0.0,80,0.00,,,0.00,WUHU21623XXSP,2013-02-10 11:15:00,
2013-02-10 03:20:00,36.6,31.0,30.08,East,90,0.0,0.0,80,0.00,,,0.00,WUHU21623XXSP,2013-02-10 11:20:00,
2013-02-10 03:25:00,36.2,30.6,30.08,East,90,0.0,0.0,80,0.00,,,0.00,WUHU21623XXSP,2013-02-10 11:25:00,
2013-02-10 03:30:00,36.2,30.6,30.08,East,90,0.0,0.0,80,0.00,,,0.00,WUHU21623XXSP,2013-02-10 11:30:00,
2013-02-10 03:35:00,36.2,30.6,30.08,East,90,0.0,0.0,80,0.00,,,0.00,WUHU21623XXSP,2013-02-10 11:35:00,
2013-02-10 03:40:00,36.2,30.6,30.08,East,90,0.0,0.0,80,0.00,,,0.00,WUHU21623XXSP,2013-02-10 11:40:00,
2013-02-10 03:45:00,36.2,30.6,30.08,East,90,0.0,0.0,80,0.00,,,0.00,WUHU21623XXSP,2013-02-10 11:45:00,
2013-02-10 03:50:00,36.0,30.4,30.08,East,90,0.0,0.0,80,0.00,,,0.00,WUHU21623XXSP,2013-02-10 11:50:00,
2013-02-10 03:55:00,36.2,30.6,30.08,East,90,0.0,0.0,80,0.00,,,0.00,WUHU21623XXSP,2013-02-10 11:55:00,
2013-02-10 04:00:00,36.0,30.4,30.08,East,90,0.0,0.0,80,0.00,,,0.00,WUHU21623XXSP,2013-02-10 12:00:00,
2013-02-10 04:05:00,36.0,30.4,30.08,East,90,0.0,0.0,80,0.00,,,0.00,WUHU21623XXSP,2013-02-10 12:05:00,
2013-02-10 04:10:00,36.0,30.4,30.09,East,90,0.0,0.0,80,0.00,,,0.00,WUHU21623XXSP,2013-02-10 12:10:00,
2013-02-10 04:15:00,35.9,30.3,30.09,East,90,0.0,0.0,80,0.00,,,0.00,WUHU21623XXSP,2013-02-10 12:15:00,
2013-02-10 04:20:00,35.7,30.4,30.08,East,90,0.0,0.0,81,0.00,,,0.00,WUHU21623XXSP,2013-02-10 12:20:00,
2013-02-10 04:25:00,35.7,30.4,30.08,East,90,0.0,0.0,81,0.00,,,0.00,WUHU21623XXSP,2013-02-10 12:25:00,
2013-02-10 04:30:00,35.7,30.4,30.08,East,90,0.0,0.0,81,0.00,,,0.00,WUHU21623XXSP,2013-02-10 12:30:00,
2013-02-10 04:39:00,35.9,30.6,30.09,East,90,0.0,0.0,81,0.00,,,0.00,WUHU21623XXSP,2013-02-10 12:39:00,
2013-02-10 04:44:00,35.7,30.4,30.08,East,90,0.0,0.0,81,0.00,,,0.00,WUHU21623XXSP,2013-02-10 12:44:00,
2013-02-10 04:49:00,35.7,30.4,30.08,East,90,0.0,0.0,81,0.00,,,0.00,WUHU21623XXSP,2013-02-10 12:49:00,
2013-02-10 04:54:00,35.7,30.4,30.08,East,90,0.0,0.0,81,0.00,,,0.00,WUHU21623XXSP,2013-02-10 12:54:00,
2013-02-10 04:59:00,35.7,30.4,30.08,East,90,0.0,0.0,81,0.00,,,0.00,WUHU21623XXSP,2013-02-10 12:59:00,
2013-02-10 05:04:00,35.5,30.3,30.08,East,90,0.0,0.0,81,0.00,,,0.00,WUHU21623XXSP,2013-02-10 13:04:00,
2013-02-10 05:09:00,35.5,30.3,30.08,East,90,0.0,0.0,81,0.00,,,0.00,WUHU21623XXSP,2013-02-10 13:09:00,
2013-02-10 05:14:00,35.7,30.4,30.08,East,90,0.0,0.0,81,0.00,,,0.00,WUHU21623XXSP,2013-02-10 13:14:00,
2013-02-10 05:19:00,35.7,30.4,30.08,East,90,0.0,0.0,81,0.00,,,0.00,WUHU21623XXSP,2013-02-10 13:19:00,
2013-02-10 05:24:00,35.7,30.4,30.09,East,90,0.0,0.0,81,0.00,,,0.00,WUHU21623XXSP,2013-02-10 13:24:00,
2013-02-10 05:29:00,35.5,30.3,30.08,East,90,0.0,0.0,81,0.00,,,0.00,WUHU21623XXSP,2013-02-10 13:29:00,
2013-02-10 05:34:00,35.5,30.5,30.09,East,90,0.0,0.0,82,0.00,,,0.00,WUHU21623XXSP,2013-02-10 13:34:00,
2013-02-10 05:39:00,35.5,30.5,30.08,East,90,0.0,0.0,82,0.00,,,0.00,WUHU21623XXSP,2013-02-10 13:39:00,
2013-02-10 05:44:00,35.5,30.5,30.09,East,90,0.0,0.0,82,0.00,,,0.00,WUHU21623XXSP,2013-02-10 13:44:00,
2013-02-10 05:49:00,35.5,30.5,30.08,East,90,0.0,0.0,82,0.00,,,0.00,WUHU21623XXSP,2013-02-10 13:49:00,
2013-02-10 05:54:00,35.5,30.5,30.08,East,90,0.0,0.0,82,0.00,,,0.00,WUHU21623XXSP,2013-02-10 13:54:00,
2013-02-10 05:59:00,35.5,30.5,30.09,East,90,0.0,0.0,82,0.00,,,0.00,WUHU21623XXSP,2013-02-10 13:59:00,
2013-02-10 06:04:00,35.3,30.4,30.08,East,90,0.0,0.0,82,0.00,,,0.00,WUHU21623XXSP,2013-02-10 14:04:00,
2013-02-10 06:09:00,35.3,30.4,30.09,East,90,0.0,0.0,82,0.00,,,0.00,WUHU21623XXSP,2013-02-10 14:09:00,
2013-02-10 06:14:00,35.1,30.2,30.08,East,90,0.0,0.0,82,0.00,,,0.00,WUHU21623XXSP,2013-02-10 14:14:00,
2013-02-10 06:19:00,35.1,30.2,30.09,East,90,0.0,0.0,82,0.00,,,0.00,WUHU21623XXSP,2013-02-10 14:19:00,
2013-02-10 06:24:00,35.1,30.2,30.09,East,90,0.0,0.0,82,0.00,,,0.00,WUHU21623XXSP,2013-02-10 14:24:00,
2013-02-10 06:29:00,34.8,29.9,30.09,East,90,0.0,0.0,82,0.00,,,0.00,WUHU21623XXSP,2013-02-10 14:29:00,
2013-02-10 06:34:00,34.8,29.9,30.09,East,90,0.0,0.0,82,0.00,,,0.00,WUHU21623XXSP,2013-02-10 14:34:00,
2013-02-10 06:39:00,34.8,29.9,30.09,East,90,0.0,0.0,82,0.00,,,0.00,WUHU21623XXSP,2013-02-10 14:39:00,
2013-02-10 06:44:00,34.8,29.9,30.10,East,90,0.0,0.0,82,0.00,,,0.00,WUHU21623XXSP,2013-02-10 14:44:00,
2013-02-10 06:49:00,34.8,29.9,30.09,East,90,0.0,0.0,82,0.00,,,0.00,WUHU21623XXSP,2013-02-10 14:49:00,
2013-02-10 06:54:00,34.8,29.9,30.09,East,90,0.0,0.0,82,0.00,,,0.00,WUHU21623XXSP,2013-02-10 14:54:00,
2013-02-10 06:59:00,34.8,29.9,30.10,East,90,0.0,0.0,82,0.00,,,0.00,WUHU21623XXSP,2013-02-10 14:59:00,
2013-02-10 07:04:00,34.8,29.9,30.10,East,90,0.0,0.0,82,0.00,,,0.00,WUHU21623XXSP,2013-02-10 15:04:00,
2013-02-10 07:09:00,35.0,30.1,30.10,East,90,0.0,0.0,82,0.00,,,0.00,WUHU21623XXSP,2013-02-10 15:09:00,
2013-02-10 07:14:00,35.0,30.1,30.09,East,90,0.0,0.0,82,0.00,,,0.00,WUHU21623XXSP,2013-02-10 15:14:00,
2013-02-10 07:20:00,35.0,30.1,30.10,East,90,0.0,0.0,82,0.00,,,0.00,WUHU21623XXSP,2013-02-10 15:20:00,
2013-02-10 07:25:00,35.3,30.6,30.10,East,90,0.0,0.0,83,0.00,,,0.00,WUHU21623XXSP,2013-02-10 15:25:00,
2013-02-10 07:30:00,35.3,30.6,30.10,East,90,0.0,0.0,83,0.00,,,0.00,WUHU21623XXSP,2013-02-10 15:30:00,
2013-02-10 07:35:00,35.3,30.4,30.10,East,90,0.0,0.0,82,0.00,,,0.00,WUHU21623XXSP,2013-02-10 15:35:00,
2013-02-10 07:40:00,35.1,30.4,30.10,ESE,112,0.0,0.0,83,0.00,,,0.00,WUHU21623XXSP,2013-02-10 15:40:00,
2013-02-10 07:45:00,35.3,30.6,30.10,ESE,112,0.0,0.0,83,0.00,,,0.00,WUHU21623XXSP,2013-02-10 15:45:00,
2013-02-10 07:50:00,35.5,30.5,30.10,ESE,112,0.0,0.0,82,0.00,,,0.00,WUHU21623XXSP,2013-02-10 15:50:00,
2013-02-10 07:55:00,35.7,30.7,30.10,ESE,112,0.0,0.0,82,0.00,,,0.00,WUHU21623XXSP,2013-02-10 15:55:00,
2013-02-10 08:00:00,36.0,31.0,30.10,ESE,112,0.0,0.0,82,0.00,,,0.00,WUHU21623XXSP,2013-02-10 16:00:00,
2013-02-10 08:05:00,36.2,31.2,30.11,ESE,112,0.0,0.0,82,0.00,,,0.00,WUHU21623XXSP,2013-02-10 16:05:00,
2013-02-10 08:10:00,36.6,31.6,30.11,ESE,112,0.0,0.0,82,0.00,,,0.00,WUHU21623XXSP,2013-02-10 16:10:00,
2013-02-10 08:15:00,36.9,31.6,30.10,ESE,112,0.0,0.0,81,0.00,,,0.00,WUHU21623XXSP,2013-02-10 16:15:00,
2013-02-10 08:20:00,37.3,32.0,30.10,ESE,112,0.0,0.0,81,0.00,,,0.00,WUHU21623XXSP,2013-02-10 16:20:00,
2013-02-10 08:25:00,37.5,32.2,30.11,ESE,112,0.0,0.0,81,0.00,,,0.00,WUHU21623XXSP,2013-02-10 16:25:00,
2013-02-10 08:30:00,37.8,32.2,30.11,ENE,67,0.0,2.8,80,0.00,,,0.00,WUHU21623XXSP,2013-02-10 16:30:00,
2013-02-10 08:35:00,38.2,32.6,30.11,East,90,0.0,4.0,80,0.00,,,0.00,WUHU21623XXSP,2013-02-10 16:35:00,
2013-02-10 08:40:00,38.7,32.8,30.11,East,90,0.0,4.5,79,0.00,,,0.00,WUHU21623XXSP,2013-02-10 16:40:00,
2013-02-10 08:45:00,39.1,33.2,30.11,East,90,0.0,4.5,79,0.00,,,0.00,WUHU21623XXSP,2013-02-10 16:45:00,
2013-02-10 08:50:00,39.6,33.6,30.11,East,90,0.0,4.0,79,0.00,,,0.00,WUHU21623XXSP,2013-02-10 16:50:00,
2013-02-10 08:55:00,40.0,33.7,30.11,NNW,337,0.0,0.0,78,0.00,,,0.00,WUHU21623XXSP,2013-02-10 16:55:00,
2013-02-10 09:00:00,40.5,34.2,30.11,NNW,337,0.0,0.0,78,0.00,,,0.00,WUHU21623XXSP,2013-02-10 17:00:00,
2013-02-10 09:05:00,41.1,34.5,30.11,NW,315,0.0,0.0,77,0.00,,,0.00,WUHU21623XXSP,2013-02-10 17:05:00,
2013-02-10 09:10:00,41.4,34.5,30.12,NNW,337,0.0,0.0,76,0.00,,,0.00,WUHU21623XXSP,2013-02-10 17:10:00,
2013-02-10 09:15:00,42.2,35.2,30.11,NW,315,0.0,0.0,76,0.00,,,0.00,WUHU21623XXSP,2013-02-10 17:15:00,
2013-02-10 09:20:00,42.3,35.0,30.11,WNW,292,2.8,2.8,75,0.00,,,0.00,WUHU21623XXSP,2013-02-10 17:20:00,
2013-02-10 09:25:00,42.7,34.7,30.11,WNW,292,0.0,5.5,73,0.00,,,0.00,WUHU21623XXSP,2013-02-10 17:25:00,
2013-02-10 09:30:00,43.2,35.2,30.11,NNW,337,0.0,7.3,73,0.00,,,0.00,WUHU21623XXSP,2013-02-10 17:30:00,
2013-02-10 09:35:00,43.8,35.4,30.11,WNW,292,0.0,9.5,72,0.00,,,0.00,WUHU21623XXSP,2013-02-10 17:35:00,
2013-02-10 09:40:00,44.1,35.4,30.11,NNW,337,0.0,9.5,71,0.00,,,0.00,WUHU21623XXSP,2013-02-10 17:40:00,
2013-02-10 09:45:00,44.5,35.4,30.10,WNW,292,0.0,7.8,70,0.00,,,0.00,WUHU21623XXSP,2013-02-10 17:45:00,
2013-02-10 09:50:00,45.0,35.5,30.10,WNW,292,0.0,5.5,69,0.00,,,0.00,WUHU21623XXSP,2013-02-10 17:50:00,
2013-02-10 09:55:00,45.2,35.4,30.10,WNW,292,0.0,5.5,68,0.00,,,0.00,WUHU21623XXSP,2013-02-10 17:55:00,
2013-02-10 10:00:00,45.6,35.4,30.10,NE,45,3.3,11.3,67,0.00,,,0.00,WUHU21623XXSP,2013-02-10 18:00:00,
2013-02-10 10:05:00,45.9,35.7,30.11,WNW,292,0.0,11.3,67,0.00,,,0.00,WUHU21623XXSP,2013-02-10 18:05:00,
2013-02-10 10:10:00,46.3,35.7,30.10,ENE,67,0.0,8.5,66,0.00,,,0.00,WUHU21623XXSP,2013-02-10 18:10:00,
2013-02-10 10:15:00,46.5,35.5,30.10,West,270,0.0,10.0,65,0.00,,,0.00,WUHU21623XXSP,2013-02-10 18:15:00,
2013-02-10 10:20:00,47.0,35.9,30.10,NW,315,0.0,10.0,65,0.00,,,0.00,WUHU21623XXSP,2013-02-10 18:20:00,
2013-02-10 10:25:00,47.2,35.7,30.10,North,0,0.0,10.0,64,0.00,,,0.00,WUHU21623XXSP,2013-02-10 18:25:00,
2013-02-10 10:30:00,47.6,35.7,30.10,WNW,292,0.0,10.0,63,0.00,,,0.00,WUHU21623XXSP,2013-02-10 18:30:00,
2013-02-10 10:35:00,48.1,36.2,30.10,SSE,157,0.0,9.0,63,0.00,,,0.00,WUHU21623XXSP,2013-02-10 18:35:00,
2013-02-10 10:40:00,48.6,35.8,30.10,West,270,0.0,7.3,61,0.00,,,0.00,WUHU21623XXSP,2013-02-10 18:40:00,
2013-02-10 10:45:00,48.8,35.6,30.10,NW,315,0.0,9.0,60,0.00,,,0.00,WUHU21623XXSP,2013-02-10 18:45:00,
2013-02-10 10:50:00,49.2,36.0,30.10,West,270,0.0,9.0,60,0.00,,,0.00,WUHU21623XXSP,2013-02-10 18:50:00,
2013-02-10 10:55:00,49.9,36.2,30.09,SW,225,0.0,8.5,59,0.00,,,0.00,WUHU21623XXSP,2013-02-10 18:55:00,
2013-02-10 11:00:00,50.3,36.6,30.10,WNW,292,7.8,9.5,59,0.00,,,0.00,WUHU21623XXSP,2013-02-10 19:00:00,
2013-02-10 11:05:00,50.3,36.2,30.10,West,270,4.5,11.3,58,0.00,,,0.00,WUHU21623XXSP,2013-02-10 19:05:00,
2013-02-10 11:10:00,50.4,35.8,30.09,WNW,292,0.0,11.3,57,0.00,,,0.00,WUHU21623XXSP,2013-02-10 19:10:00,
2013-02-10 11:15:00,51.0,35.9,30.09,WSW,247,0.0,9.5,56,0.00,,,0.00,WUHU21623XXSP,2013-02-10 19:15:00,
2013-02-10 11:20:00,51.2,35.6,30.08,WNW,292,5.0,15.8,55,0.00,,,0.00,WUHU21623XXSP,2013-02-10 19:20:00,
2013-02-10 11:25:00,51.7,36.1,30.08,WNW,292,0.0,15.8,55,0.00,,,0.00,WUHU21623XXSP,2013-02-10 19:25:00,
2013-02-10 11:30:00,52.2,36.6,30.08,West,270,0.0,14.0,55,0.00,,,0.00,WUHU21623XXSP,2013-02-10 19:30:00,
2013-02-10 11:35:00,52.4,35.8,30.08,WNW,292,9.5,14.5,53,0.00,,,0.00,WUHU21623XXSP,2013-02-10 19:35:00,
2013-02-10 11:40:00,53.1,36.4,30.07,West,270,0.0,14.5,53,0.00,,,0.00,WUHU21623XXSP,2013-02-10 19:40:00,
2013-02-10 11:45:00,53.7,36.5,30.07,NNW,337,0.0,11.3,52,0.00,,,0.00,WUHU21623XXSP,2013-02-10 19:45:00,
2013-02-10 11:50:00,53.9,36.7,30.07,WNW,292,4.0,5.5,52,0.00,,,0.00,WUHU21623XXSP,2013-02-10 19:50:00,
2013-02-10 11:55:00,53.9,35.7,30.06,WNW,292,0.0,23.0,50,0.00,,,0.00,WUHU21623XXSP,2013-02-10 19:55:00,
2013-02-10 12:00:00,54.0,35.2,30.06,WNW,292,5.5,23.0,49,0.00,,,0.00,WUHU21623XXSP,2013-02-10 20:00:00,
2013-02-10 12:05:00,54.8,36.0,30.06,WNW,292,0.0,8.5,49,0.00,,,0.00,WUHU21623XXSP,2013-02-10 20:05:00,
2013-02-10 12:10:00,54.9,35.0,30.05,West,270,5.0,9.5,47,0.00,,,0.00,WUHU21623XXSP,2013-02-10 20:10:00,
2013-02-10 12:15:00,54.9,34.4,30.05,West,270,0.0,14.5,46,0.00,,,0.00,WUHU21623XXSP,2013-02-10 20:15:00,
2013-02-10 12:20:00,55.5,34.4,30.05,NW,315,7.3,14.5,45,0.00,,,0.00,WUHU21623XXSP,2013-02-10 20:20:00,
2013-02-10 12:25:00,56.0,34.9,30.05,North,0,0.0,9.0,45,0.00,,,0.00,WUHU21623XXSP,2013-02-10 20:25:00,
2013-02-10 12:30:00,56.0,34.9,30.05,SSW,202,0.0,9.5,45,0.00,,,0.00,WUHU21623XXSP,2013-02-10 20:30:00,
2013-02-10 12:35:00,56.4,35.2,30.04,West,270,5.5,9.5,45,0.00,,,0.00,WUHU21623XXSP,2013-02-10 20:35:00,
2013-02-10 12:40:00,56.6,34.8,30.04,WNW,292,2.3,9.0,44,0.00,,,0.00,WUHU21623XXSP,2013-02-10 20:40:00,
2013-02-10 12:45:00,56.7,34.9,30.04,WNW,292,0.0,9.0,44,0.00,,,0.00,WUHU21623XXSP,2013-02-10 20:45:00,
2013-02-10 12:50:00,56.7,34.3,30.03,West,270,5.5,14.0,43,0.00,,,0.00,WUHU21623XXSP,2013-02-10 20:50:00,
2013-02-10 12:55:00,56.7,34.3,30.03,WNW,292,6.8,20.8,43,0.00,,,0.00,WUHU21623XXSP,2013-02-10 20:55:00,
2013-02-10 13:00:00,56.9,35.1,30.03,North,0,0.0,20.8,44,0.00,,,0.00,WUHU21623XXSP,2013-02-10 21:00:00,
2013-02-10 13:05:00,57.1,35.3,30.02,West,270,5.0,24.0,44,0.00,,,0.00,WUHU21623XXSP,2013-02-10 21:05:00,
2013-02-10 13:10:00,56.6,34.8,30.02,WNW,292,0.0,24.0,44,0.00,,,0.00,WUHU21623XXSP,2013-02-10 21:10:00,
2013-02-10 13:15:00,56.9,35.1,30.02,WNW,292,2.8,15.0,44,0.00,,,0.00,WUHU21623XXSP,2013-02-10 21:15:00,
2013-02-10 13:20:00,56.4,34.6,30.02,WNW,292,11.3,14.5,44,0.00,,,0.00,WUHU21623XXSP,2013-02-10 21:20:00,
2013-02-10 13:25:00,56.7,35.5,30.02,WNW,292,9.0,14.5,45,0.00,,,0.00,WUHU21623XXSP,2013-02-10 21:25:00,
2013-02-10 13:30:00,56.9,36.3,30.02,NE,45,0.0,11.3,46,0.00,,,0.00,WUHU21623XXSP,2013-02-10 21:30:00,
2013-02-10 13:35:00,56.9,35.7,30.02,WNW,292,9.0,17.3,45,0.00,,,0.00,WUHU21623XXSP,2013-02-10 21:35:00,
2013-02-10 13:40:00,56.7,36.1,30.02,NW,315,0.0,17.3,46,0.00,,,0.00,WUHU21623XXSP,2013-02-10 21:40:00,
2013-02-10 13:45:00,56.7,36.1,30.02,WNW,292,4.0,15.8,46,0.00,,,0.00,WUHU21623XXSP,2013-02-10 21:45:00,
2013-02-10 13:50:00,56.9,36.3,30.02,NW,315,0.0,15.8,46,0.00,,,0.00,WUHU21623XXSP,2013-02-10 21:50:00,
2013-02-10 13:55:00,57.1,36.4,30.01,WNW,292,0.0,18.0,46,0.00,,,0.00,WUHU21623XXSP,2013-02-10 21:55:00,
2013-02-10 14:00:00,57.5,36.8,30.01,WSW,247,9.0,18.0,46,0.00,,,0.00,WUHU21623XXSP,2013-02-10 22:00:00,
2013-02-10 14:05:00,57.1,36.4,30.01,SW,225,12.8,13.5,46,0.00,,,0.00,WUHU21623XXSP,2013-02-10 22:05:00,
2013-02-10 14:10:00,56.9,36.3,30.01,South,180,5.0,28.5,46,0.00,,,0.00,WUHU21623XXSP,2013-02-10 22:10:00,
2013-02-10 14:15:00,56.9,36.8,30.01,WSW,247,0.0,28.5,47,0.00,,,0.00,WUHU21623XXSP,2013-02-10 22:15:00,
2013-02-10 14:20:00,56.7,36.6,30.01,WNW,292,9.5,20.8,47,0.00,,,0.00,WUHU21623XXSP,2013-02-10 22:20:00,
2013-02-10 14:25:00,56.9,36.8,30.01,West,270,10.8,20.8,47,0.00,,,0.00,WUHU21623XXSP,2013-02-10 22:25:00,
2013-02-10 14:30:00,56.7,36.6,30.00,NE,45,0.0,14.0,47,0.00,,,0.00,WUHU21623XXSP,2013-02-10 22:30:00,
2013-02-10 14:35:00,56.4,36.9,30.01,South,180,0.0,11.8,48,0.00,,,0.00,WUHU21623XXSP,2013-02-10 22:35:00,
2013-02-10 14:40:00,56.4,36.4,30.00,WNW,292,14.0,15.8,47,0.00,,,0.00,WUHU21623XXSP,2013-02-10 22:40:00,
2013-02-10 14:45:00,56.4,36.4,30.00,ENE,67,0.0,15.8,47,0.00,,,0.00,WUHU21623XXSP,2013-02-10 22:45:00,
2013-02-10 14:50:00,56.4,36.4,30.00,WNW,292,0.0,14.0,47,0.00,,,0.00,WUHU21623XXSP,2013-02-10 22:50:00,
2013-02-10 14:55:00,56.4,36.9,30.00,SSW,202,0.0,12.8,48,0.00,,,0.00,WUHU21623XXSP,2013-02-10 22:55:00,
2013-02-10 15:00:00,56.0,36.0,30.00,NNE,22,21.8,21.8,47,0.00,,,0.00,WUHU21623XXSP,2013-02-10 23:00:00,
2013-02-10 15:05:00,56.0,36.0,30.00,South,180,0.0,21.8,47,0.00,,,0.00,WUHU21623XXSP,2013-02-10 23:05:00,
2013-02-10 15:10:00,56.4,36.9,30.00,WNW,292,6.3,21.8,48,0.00,,,0.00,WUHU21623XXSP,2013-02-10 23:10:00,
2013-02-10 15:15:00,56.4,36.9,30.01,North,0,2.3,7.3,48,0.00,,,0.00,WUHU21623XXSP,2013-02-10 23:15:00,
2013-02-10 15:20:00,56.6,36.5,30.00,WNW,292,20.3,20.3,47,0.00,,,0.00,WUHU21623XXSP,2013-02-10 23:20:00,
2013-02-10 15:25:00,56.6,37.1,30.00,West,270,5.0,20.3,48,0.00,,,0.00,WUHU21623XXSP,2013-02-10 23:25:00,
2013-02-10 15:30:00,56.6,36.5,30.00,West,270,0.0,19.0,47,0.00,,,0.00,WUHU21623XXSP,2013-02-10 23:30:00,
2013-02-10 15:35:00,56.7,36.6,30.00,WNW,292,0.0,8.5,47,0.00,,,0.00,WUHU21623XXSP,2013-02-10 23:35:00,
2013-02-10 15:40:00,56.7,36.1,30.00,West,270,0.0,9.0,46,0.00,,,0.00,WUHU21623XXSP,2013-02-10 23:40:00,
2013-02-10 15:45:00,56.9,36.3,30.00,WNW,292,0.0,9.0,46,0.00,,,0.00,WUHU21623XXSP,2013-02-10 23:45:00,
2013-02-10 15:51:00,57.1,36.4,30.00,WSW,247,0.0,6.8,46,0.00,,,0.00,WUHU21623XXSP,2013-02-10 23:51:00,
2013-02-10 15:56:00,57.1,36.4,30.00,WNW,292,4.0,8.5,46,0.00,,,0.00,WUHU21623XXSP,2013-02-10 23:56:00,
2013-02-10 16:01:00,57.1,36.4,30.00,North,0,0.0,8.5,46,0.00,,,0.00,WUHU21623XXSP,2013-02-11 00:01:00,
2013-02-10 16:06:00,57.1,37.0,30.00,NE,45,0.0,8.5,47,0.00,,,0.00,WUHU21623XXSP,2013-02-11 00:06:00,
2013-02-10 16:11:00,57.1,36.4,30.00,ENE,67,0.0,7.8,46,0.00,,,0.00,WUHU21623XXSP,2013-02-11 00:11:00,
2013-02-10 16:16:00,57.1,36.4,29.99,West,270,0.0,10.8,46,0.00,,,0.00,WUHU21623XXSP,2013-02-11 00:16:00,
2013-02-10 16:21:00,57.3,36.6,29.99,West,270,0.0,10.8,46,0.00,,,0.00,WUHU21623XXSP,2013-02-11 00:21:00,
2013-02-10 16:26:00,57.3,36.6,29.99,North,0,0.0,5.0,46,0.00,,,0.00,WUHU21623XXSP,2013-02-11 00:26:00,
2013-02-10 16:31:00,57.1,36.4,29.99,NE,45,0.0,6.3,46,0.00,,,0.00,WUHU21623XXSP,2013-02-11 00:31:00,
2013-02-10 16:36:00,57.1,36.4,29.99,South,180,0.0,6.3,46,0.00,,,0.00,WUHU21623XXSP,2013-02-11 00:36:00,
2013-02-10 16:41:00,56.9,36.3,29.99,North,0,0.0,9.5,46,0.00,,,0.00,WUHU21623XXSP,2013-02-11 00:41:00,
2013-02-10 16:46:00,56.9,36.3,29.99,NNE,22,7.8,10.8,46,0.00,,,0.00,WUHU21623XXSP,2013-02-11 00:46:00,
2013-02-10 16:51:00,56.7,36.1,29.99,WNW,292,0.0,10.8,46,0.00,,,0.00,WUHU21623XXSP,2013-02-11 00:51:00,
2013-02-10 16:56:00,56.6,36.5,30.00,NE,45,0.0,9.5,47,0.00,,,0.00,WUHU21623XXSP,2013-02-11 00:56:00,
2013-02-10 17:01:00,56.4,36.9,29.99,NE,45,0.0,2.8,48,0.00,,,0.00,WUHU21623XXSP,2013-02-11 01:01:00,
2013-02-10 17:06:00,56.0,37.1,29.99,East,90,0.0,0.0,49,0.00,,,0.00,WUHU21623XXSP,2013-02-11 01:06:00,
2013-02-10 17:11:00,56.0,37.1,29.99,ESE,112,0.0,0.0,49,0.00,,,0.00,WUHU21623XXSP,2013-02-11 01:11:00,
2013-02-10 17:16:00,55.5,37.7,29.99,ESE,112,0.0,0.0,51,0.00,,,0.00,WUHU21623XXSP,2013-02-11 01:16:00,
2013-02-10 17:21:00,55.1,37.3,29.99,ESE,112,0.0,0.0,51,0.00,,,0.00,WUHU21623XXSP,2013-02-11 01:21:00,
2013-02-10 17:26:00,54.8,37.5,30.00,ESE,112,0.0,0.0,52,0.00,,,0.00,WUHU21623XXSP,2013-02-11 01:26:00,
2013-02-10 17:31:00,54.2,37.5,30.00,ESE,112,0.0,0.0,53,0.00,,,0.00,WUHU21623XXSP,2013-02-11 01:31:00,
2013-02-10 17:36:00,53.7,37.5,30.00,ESE,112,0.0,0.0,54,0.00,,,0.00,WUHU21623XXSP,2013-02-11 01:36:00,
2013-02-10 17:41:00,53.3,37.6,30.00,ESE,112,0.0,0.0,55,0.00,,,0.00,WUHU21623XXSP,2013-02-11 01:41:00,
2013-02-10 17:46:00,53.0,37.8,30.00,ESE,112,0.0,0.0,56,0.00,,,0.00,WUHU21623XXSP,2013-02-11 01:46:00,
2013-02-10 17:51:00,52.6,37.9,30.00,ESE,112,0.0,0.0,57,0.00,,,0.00,WUHU21623XXSP,2013-02-11 01:51:00,
2013-02-10 17:56:00,52.2,37.5,30.00,ESE,112,0.0,0.0,57,0.00,,,0.00,WUHU21623XXSP,2013-02-11 01:56:00,
2013-02-10 18:01:00,51.9,37.2,30.00,ESE,112,0.0,0.0,57,0.00,,,0.00,WUHU21623XXSP,2013-02-11 02:01:00,
2013-02-10 18:06:00,51.5,37.3,30.00,ESE,112,0.0,0.0,58,0.00,,,0.00,WUHU21623XXSP,2013-02-11 02:06:00,
2013-02-10 18:11:00,51.2,37.4,30.00,ESE,112,0.0,0.0,59,0.00,,,0.00,WUHU21623XXSP,2013-02-11 02:11:00,
2013-02-10 18:16:00,50.6,37.3,30.00,ESE,112,0.0,0.0,60,0.00,,,0.00,WUHU21623XXSP,2013-02-11 02:16:00,
2013-02-10 18:21:00,50.3,37.5,30.00,ESE,112,0.0,0.0,61,0.00,,,0.00,WUHU21623XXSP,2013-02-11 02:21:00,
2013-02-10 18:26:00,49.7,36.9,30.00,ESE,112,0.0,0.0,61,0.00,,,0.00,WUHU21623XXSP,2013-02-11 02:26:00,
2013-02-10 18:31:00,49.7,36.9,30.01,ESE,112,0.0,0.0,61,0.00,,,0.00,WUHU21623XXSP,2013-02-11 02:31:00,
2013-02-10 18:36:00,49.4,37.4,30.01,ENE,67,0.0,0.0,63,0.00,,,0.00,WUHU21623XXSP,2013-02-11 02:36:00,
2013-02-10 18:41:00,49.2,37.2,30.02,ENE,67,0.0,0.0,63,0.00,,,0.00,WUHU21623XXSP,2013-02-11 02:41:00,
2013-02-10 18:46:00,48.6,37.1,30.01,ENE,67,0.0,0.0,64,0.00,,,0.00,WUHU21623XXSP,2013-02-11 02:46:00,
2013-02-10 18:51:00,48.6,37.1,30.01,ENE,67,0.0,0.0,64,0.00,,,0.00,WUHU21623XXSP,2013-02-11 02:51:00,
2013-02-10 18:56:00,48.3,36.8,30.01,ENE,67,0.0,0.0,64,0.00,,,0.00,WUHU21623XXSP,2013-02-11 02:56:00,
2013-02-10 19:01:00,48.3,36.8,30.01,ENE,67,0.0,0.0,64,0.00,,,0.00,WUHU21623XXSP,2013-02-11 03:01:00,
2013-02-10 19:06:00,48.1,37.0,30.01,ENE,67,0.0,0.0,65,0.00,,,0.00,WUHU21623XXSP,2013-02-11 03:06:00,
2013-02-10 19:11:00,48.1,36.6,30.01,ENE,67,0.0,0.0,64,0.00,,,0.00,WUHU21623XXSP,2013-02-11 03:11:00,
2013-02-10 19:16:00,47.7,36.6,30.01,ENE,67,0.0,0.0,65,0.00,,,0.00,WUHU21623XXSP,2013-02-11 03:16:00,
2013-02-10 19:21:00,47.4,36.3,30.01,ENE,67,0.0,0.0,65,0.00,,,0.00,WUHU21623XXSP,2013-02-11 03:21:00,
2013-02-10 19:26:00,47.0,36.3,30.02,ENE,67,0.0,0.0,66,0.00,,,0.00,WUHU21623XXSP,2013-02-11 03:26:00,
2013-02-10 19:31:00,47.0,35.9,30.01,ENE,67,0.0,6.3,65,0.00,,,0.00,WUHU21623XXSP,2013-02-11 03:31:00,
2013-02-10 19:36:00,46.8,36.1,30.02,ENE,67,0.0,6.3,66,0.00,,,0.00,WUHU21623XXSP,2013-02-11 03:36:00,
2013-02-10 19:41:00,46.8,36.5,30.01,ENE,67,0.0,0.0,67,0.00,,,0.00,WUHU21623XXSP,2013-02-11 03:41:00,
2013-02-10 19:46:00,47.0,36.3,30.01,ENE,67,0.0,0.0,66,0.00,,,0.00,WUHU21623XXSP,2013-02-11 03:46:00,
2013-02-10 19:51:00,46.8,36.5,30.02,ENE,67,0.0,0.0,67,0.00,,,0.00,WUHU21623XXSP,2013-02-11 03:51:00,
2013-02-10 19:56:00,46.5,35.9,30.01,North,0,0.0,0.0,66,0.00,,,0.00,WUHU21623XXSP,2013-02-11 03:56:00,
2013-02-10 20:01:00,46.5,35.9,30.02,NNW,337,0.0,0.0,66,0.00,,,0.00,WUHU21623XXSP,2013-02-11 04:01:00,
2013-02-10 20:06:00,45.9,35.7,30.02,ENE,67,0.0,0.0,67,0.00,,,0.00,WUHU21623XXSP,2013-02-11 04:06:00,
2013-02-10 20:11:00,45.6,35.7,30.02,NE,45,0.0,0.0,68,0.00,,,0.00,WUHU21623XXSP,2013-02-11 04:11:00,
2013-02-10 20:16:00,45.6,35.7,30.02,NNE,22,0.0,0.0,68,0.00,,,0.00,WUHU21623XXSP,2013-02-11 04:16:00,
2013-02-10 20:21:00,45.6,35.7,30.02,East,90,0.0,0.0,68,0.00,,,0.00,WUHU21623XXSP,2013-02-11 04:21:00,
2013-02-10 20:26:00,45.2,35.4,30.02,East,90,2.3,7.3,68,0.00,,,0.00,WUHU21623XXSP,2013-02-11 04:26:00,
2013-02-10 20:31:00,45.2,35.4,30.02,East,90,0.0,7.3,68,0.00,,,0.00,WUHU21623XXSP,2013-02-11 04:31:00,
2013-02-10 20:36:00,44.7,35.2,30.02,ENE,67,0.0,6.3,69,0.00,,,0.00,WUHU21623XXSP,2013-02-11 04:36:00,
2013-02-10 20:41:00,44.7,35.2,30.02,ENE,67,0.0,3.3,69,0.00,,,0.00,WUHU21623XXSP,2013-02-11 04:41:00,
2013-02-10 20:46:00,44.7,35.2,30.02,ENE,67,0.0,0.0,69,0.00,,,0.00,WUHU21623XXSP,2013-02-11 04:46:00,
2013-02-10 20:51:00,44.9,35.4,30.02,ENE,67,0.0,0.0,69,0.00,,,0.00,WUHU21623XXSP,2013-02-11 04:51:00,
2013-02-10 20:56:00,44.7,35.2,30.02,ENE,67,0.0,0.0,69,0.00,,,0.00,WUHU21623XXSP,2013-02-11 04:56:00,
2013-02-10 21:00:00,44.3,34.9,30.02,ENE,67,0.0,0.0,69,0.00,,,0.00,WUHU21623XXSP,2013-02-11 05:00:00,
2013-02-10 21:05:00,44.0,34.9,30.02,ENE,67,0.0,0.0,70,0.00,,,0.00,WUHU21623XXSP,2013-02-11 05:05:00,
2013-02-10 21:10:00,43.8,34.4,30.02,ENE,67,0.0,0.0,69,0.00,,,0.00,WUHU21623XXSP,2013-02-11 05:10:00,
2013-02-10 21:15:00,43.4,34.4,30.03,ENE,67,0.0,0.0,70,0.00,,,0.00,WUHU21623XXSP,2013-02-11 05:15:00,
2013-02-10 21:20:00,43.4,34.4,30.03,ENE,67,0.0,0.0,70,0.00,,,0.00,WUHU21623XXSP,2013-02-11 05:20:00,
2013-02-10 21:25:00,43.2,34.5,30.03,ENE,67,0.0,0.0,71,0.00,,,0.00,WUHU21623XXSP,2013-02-11 05:25:00,
2013-02-10 21:30:00,43.1,34.4,30.03,ENE,67,0.0,0.0,71,0.00,,,0.00,WUHU21623XXSP,2013-02-11 05:30:00,
2013-02-10 21:35:00,42.5,34.2,30.03,SW,225,0.0,5.0,72,0.00,,,0.00,WUHU21623XXSP,2013-02-11 05:35:00,
2013-02-10 21:40:00,42.3,34.0,30.03,SW,225,0.0,5.0,72,0.00,,,0.00,WUHU21623XXSP,2013-02-11 05:40:00,
2013-02-10 21:45:00,42.3,34.0,30.03,SW,225,0.0,0.0,72,0.00,,,0.00,WUHU21623XXSP,2013-02-11 05:45:00,
2013-02-10 21:50:00,42.2,33.9,30.03,SW,225,0.0,0.0,72,0.00,,,0.00,WUHU21623XXSP,2013-02-11 05:50:00,
2013-02-10 21:55:00,42.0,34.0,30.03,East,90,0.0,5.5,73,0.00,,,0.00,WUHU21623XXSP,2013-02-11 05:55:00,
2013-02-10 22:00:00,41.8,33.8,30.03,East,90,0.0,5.5,73,0.00,,,0.00,WUHU21623XXSP,2013-02-11 06:00:00,
2013-02-10 22:05:00,41.6,33.7,30.03,East,90,0.0,0.0,73,0.00,,,0.00,WUHU21623XXSP,2013-02-11 06:05:00,
2013-02-10 22:10:00,41.6,33.7,30.03,ENE,67,0.0,0.0,73,0.00,,,0.00,WUHU21623XXSP,2013-02-11 06:10:00,
2013-02-10 22:15:00,41.4,33.8,30.03,ENE,67,0.0,0.0,74,0.00,,,0.00,WUHU21623XXSP,2013-02-11 06:15:00,
2013-02-10 22:20:00,41.6,34.0,30.04,North,0,0.0,0.0,74,0.00,,,0.00,WUHU21623XXSP,2013-02-11 06:20:00,
2013-02-10 22:25:00,41.6,33.7,30.04,NE,45,0.0,0.0,73,0.00,,,0.00,WUHU21623XXSP,2013-02-11 06:25:00,
2013-02-10 22:30:00,41.4,33.8,30.04,NE,45,0.0,0.0,74,0.00,,,0.00,WUHU21623XXSP,2013-02-11 06:30:00,
2013-02-10 22:36:00,41.4,33.8,30.04,NE,45,0.0,0.0,74,0.00,,,0.00,WUHU21623XXSP,2013-02-11 06:36:00,
2013-02-10 22:41:00,41.1,33.5,30.04,NE,45,0.0,0.0,74,0.00,,,0.00,WUHU21623XXSP,2013-02-11 06:41:00,
2013-02-10 22:46:00,40.9,33.3,30.04,ENE,67,0.0,6.8,74,0.00,,,0.00,WUHU21623XXSP,2013-02-11 06:46:00,
2013-02-10 22:51:00,40.9,33.3,30.04,ENE,67,0.0,6.8,74,0.00,,,0.00,WUHU21623XXSP,2013-02-11 06:51:00,
2013-02-10 22:56:00,41.1,33.5,30.04,East,90,0.0,5.5,74,0.00,,,0.00,WUHU21623XXSP,2013-02-11 06:56:00,
2013-02-10 23:01:00,41.4,33.8,30.03,ESE,112,0.0,5.5,74,0.00,,,0.00,WUHU21623XXSP,2013-02-11 07:01:00,
2013-02-10 23:06:00,42.0,33.4,30.04,ESE,112,0.0,5.5,71,0.00,,,0.00,WUHU21623XXSP,2013-02-11 07:06:00,
2013-02-10 23:11:00,42.3,32.9,30.04,ENE,67,9.5,12.8,69,0.00,,,0.00,WUHU21623XXSP,2013-02-11 07:11:00,
2013-02-10 23:16:00,43.4,31.7,30.04,ESE,112,0.0,12.8,63,0.00,,,0.00,WUHU21623XXSP,2013-02-11 07:16:00,
2013-02-10 23:21:00,44.0,31.9,30.04,SSW,202,0.0,14.5,62,0.00,,,0.00,WUHU21623XXSP,2013-02-11 07:21:00,
2013-02-10 23:26:00,42.5,32.0,30.04,South,180,0.0,14.5,66,0.00,,,0.00,WUHU21623XXSP,2013-02-11 07:26:00,
2013-02-10 23:31:00,42.0,32.7,30.04,South,180,0.0,4.5,69,0.00,,,0.00,WUHU21623XXSP,2013-02-11 07:31:00,
2013-02-10 23:36:00,41.6,32.6,30.04,SSE,157,0.0,0.0,70,0.00,,,0.00,WUHU21623XXSP,2013-02-11 07:36:00,
2013-02-10 23:41:00,41.3,33.0,30.05,East,90,0.0,0.0,72,0.00,,,0.00,WUHU21623XXSP,2013-02-11 07:41:00,
2013-02-10 23:46:00,41.1,33.2,30.05,ESE,112,0.0,0.0,73,0.00,,,0.00,WUHU21623XXSP,2013-02-11 07:46:00,
2013-02-10 23:51:00,41.1,33.2,30.05,North,0,0.0,0.0,73,0.00,,,0.00,WUHU21623XXSP,2013-02-11 07:51:00,
2013-02-10 23:56:00,41.1,32.8,30.05,NNE,22,0.0,0.0,72,0.00,,,0.00,WUHU21623XXSP,2013-02-11 07:56:00,